Time;durP1;ratioP1;P1;durP2;ratioP2;P2;SDS_P1;SDS_P2;PMS_P1;PMS_P2;Temp;Humidity;BMP_temperature;BMP_pressure;BME280_temperature;BME280_humidity;BME280_pressure;Samples;Min_cycle;Max_cycle;Signal;HPM_P1;HPM_P2
2024/02/23 00:04:24;;;;;;;35.85;19.77;;;;;;;;;;10311553;28;20415;-83
2024/02/23 00:09:27;;;;;;;35.95;20.48;;;;;;;;;;10319495;28;20507;-83
2024/02/23 00:14:30;;;;;;;34.72;19.17;;;;;;;;;;10313443;28;20418;-83
2024/02/23 00:19:34;;;;;;;35.40;18.70;;;;;;;;;;10306144;28;20440;-83
2024/02/23 00:24:37;;;;;;;34.40;19.45;;;;;;;;;;10312321;28;20919;-84
2024/02/23 00:29:40;;;;;;;29.80;17.48;;;;;;;;;;10325582;28;20458;-83
2024/02/23 00:34:44;;;;;;;30.90;17.55;;;;;;;;;;10314649;28;20408;-82
2024/02/23 00:39:46;;;;;;;27.75;16.08;;;;;;;;;;10320044;28;20412;-82
2024/02/23 00:44:49;;;;;;;27.90;15.07;;;;;;;;;;10313785;28;20497;-83
2024/02/23 00:49:52;;;;;;;24.70;14.10;;;;;;;;;;10317538;28;20434;-83
2024/02/23 00:54:55;;;;;;;25.35;13.57;;;;;;;;;;10326641;28;20471;-83
2024/02/23 00:59:57;;;;;;;22.92;12.88;;;;;;;;;;10316155;28;20425;-83
2024/02/23 01:05:02;;;;;;;22.13;12.20;;;;;;;;;;10309749;28;20416;-83
2024/02/23 01:10:05;;;;;;;21.55;11.20;;;;;;;;;;10310394;28;20493;-82
2024/02/23 01:15:08;;;;;;;22.05;11.85;;;;;;;;;;10313289;28;20442;-82
2024/02/23 01:20:12;;;;;;;20.43;11.03;;;;;;;;;;10315726;28;20498;-83
2024/02/23 01:25:15;;;;;;;19.58;10.82;;;;;;;;;;10315773;28;20443;-83
2024/02/23 01:30:18;;;;;;;17.27;10.43;;;;;;;;;;10314518;28;20550;-83
2024/02/23 01:35:22;;;;;;;17.70;9.40;;;;;;;;;;10309625;28;20416;-83
2024/02/23 01:40:24;;;;;;;18.85;9.13;;;;;;;;;;10322488;28;20544;-83
2024/02/23 01:45:27;;;;;;;14.32;8.77;;;;;;;;;;10311962;28;20417;-82
2024/02/23 01:50:31;;;;;;;13.93;8.80;;;;;;;;;;10325532;28;20428;-82
2024/02/23 01:55:34;;;;;;;13.10;8.00;;;;;;;;;;10327003;28;20417;-82
2024/02/23 02:00:37;;;;;;;15.10;8.60;;;;;;;;;;10319766;28;20413;-82
2024/02/23 02:05:41;;;;;;;14.20;8.53;;;;;;;;;;10314338;28;20473;-83
2024/02/23 02:10:45;;;;;;;14.80;7.90;;;;;;;;;;10318645;28;20509;-83
2024/02/23 02:15:47;;;;;;;14.13;8.32;;;;;;;;;;10313534;28;20452;-83
2024/02/23 02:20:57;;;;;;;13.33;7.80;;;;;;;;;;10315446;28;20781;-82
2024/02/23 02:26:00;;;;;;;12.52;6.95;;;;;;;;;;10320125;28;20444;-83
2024/02/23 02:31:03;;;;;;;11.27;6.70;;;;;;;;;;10328498;28;20462;-83
2024/02/23 02:36:07;;;;;;;11.73;7.50;;;;;;;;;;10317435;28;20818;-82
2024/02/23 02:41:10;;;;;;;11.75;7.05;;;;;;;;;;10321526;28;20425;-83
2024/02/23 02:46:12;;;;;;;10.40;6.80;;;;;;;;;;10327794;28;20842;-83
2024/02/23 02:51:16;;;;;;;11.15;7.10;;;;;;;;;;10324166;28;20414;-82
2024/02/23 02:56:18;;;;;;;10.97;6.33;;;;;;;;;;10319966;28;20535;-82
2024/02/23 03:01:20;;;;;;;11.23;6.72;;;;;;;;;;10327585;28;20493;-83
2024/02/23 03:06:24;;;;;;;8.18;5.55;;;;;;;;;;10323181;28;20407;-83
2024/02/23 03:11:26;;;;;;;8.80;5.30;;;;;;;;;;10314728;28;20829;-83
2024/02/23 03:16:31;;;;;;;7.70;5.30;;;;;;;;;;10320307;28;20423;-83
2024/02/23 03:21:34;;;;;;;6.10;4.20;;;;;;;;;;10319880;28;20485;-82
2024/02/23 03:26:37;;;;;;;7.78;4.93;;;;;;;;;;10320672;28;20479;-83
2024/02/23 03:31:39;;;;;;;8.05;4.25;;;;;;;;;;10315946;28;20783;-84
2024/02/23 03:36:43;;;;;;;8.95;4.50;;;;;;;;;;10314173;28;20538;-83
2024/02/23 03:41:45;;;;;;;5.70;4.00;;;;;;;;;;10324333;28;20450;-82
2024/02/23 03:46:47;;;;;;;6.70;3.95;;;;;;;;;;10318052;28;20412;-83
2024/02/23 03:51:51;;;;;;;5.70;3.80;;;;;;;;;;10308850;28;20414;-84
2024/02/23 03:56:53;;;;;;;6.87;3.67;;;;;;;;;;10310656;28;20542;-84
2024/02/23 04:01:56;;;;;;;7.37;4.20;;;;;;;;;;10318054;28;20407;-82
2024/02/23 04:06:59;;;;;;;7.55;4.28;;;;;;;;;;10314928;28;20522;-83
2024/02/23 04:12:02;;;;;;;6.50;3.65;;;;;;;;;;10316521;28;20419;-83
2024/02/23 04:17:04;;;;;;;6.82;3.85;;;;;;;;;;10317705;28;20483;-83
2024/02/23 04:22:09;;;;;;;5.47;3.78;;;;;;;;;;10319099;28;20493;-83
2024/02/23 04:27:12;;;;;;;4.25;3.08;;;;;;;;;;10314369;28;20899;-83
2024/02/23 04:32:14;;;;;;;4.68;3.22;;;;;;;;;;10319321;28;20420;-82
2024/02/23 04:37:18;;;;;;;6.82;3.05;;;;;;;;;;10314699;28;20421;-83
2024/02/23 04:42:20;;;;;;;5.75;2.88;;;;;;;;;;10324934;28;20414;-83
2024/02/23 04:47:23;;;;;;;5.78;3.65;;;;;;;;;;10314461;28;20438;-83
2024/02/23 04:52:27;;;;;;;4.32;2.70;;;;;;;;;;10318768;28;20413;-83
2024/02/23 04:57:29;;;;;;;3.90;2.73;;;;;;;;;;10310026;28;20549;-82
2024/02/23 05:02:34;;;;;;;7.83;3.43;;;;;;;;;;10314004;28;20531;-84
2024/02/23 05:07:38;;;;;;;5.57;2.85;;;;;;;;;;10319934;28;20951;-83
2024/02/23 05:12:41;;;;;;;6.13;3.67;;;;;;;;;;10313876;28;20527;-84
2024/02/23 05:17:43;;;;;;;3.70;2.90;;;;;;;;;;10327242;28;20442;-83
2024/02/23 05:22:47;;;;;;;6.40;3.70;;;;;;;;;;10320346;28;20434;-83
2024/02/23 05:27:49;;;;;;;5.68;3.50;;;;;;;;;;10324158;28;20506;-83
2024/02/23 05:32:51;;;;;;;7.40;3.60;;;;;;;;;;10325125;28;20511;-83
2024/02/23 05:37:56;;;;;;;5.50;3.73;;;;;;;;;;10327557;28;20414;-83
2024/02/23 05:42:58;;;;;;;6.67;3.80;;;;;;;;;;10317977;28;20421;-83
2024/02/23 05:48:01;;;;;;;6.47;3.73;;;;;;;;;;10317601;28;20913;-83
2024/02/23 05:53:05;;;;;;;5.18;3.58;;;;;;;;;;10326258;28;20422;-83
2024/02/23 05:58:08;;;;;;;5.90;3.47;;;;;;;;;;10322456;28;20454;-83
2024/02/23 06:03:11;;;;;;;7.93;3.90;;;;;;;;;;10319867;28;20440;-82
2024/02/23 06:08:14;;;;;;;6.05;3.83;;;;;;;;;;10311336;28;20517;-83
2024/02/23 06:13:17;;;;;;;5.78;3.38;;;;;;;;;;10334387;28;20407;-83
2024/02/23 06:18:19;;;;;;;8.52;4.05;;;;;;;;;;10322028;28;20405;-83
2024/02/23 06:23:34;;;;;;;7.88;3.90;;;;;;;;;;10328976;28;20567;-84
2024/02/23 06:28:38;;;;;;;5.68;3.63;;;;;;;;;;10314425;28;20479;-81
2024/02/23 06:33:43;;;;;;;7.90;3.88;;;;;;;;;;10328308;28;20415;-84
2024/02/23 06:38:46;;;;;;;10.00;4.20;;;;;;;;;;10325059;28;20522;-84
2024/02/23 06:43:49;;;;;;;7.97;3.80;;;;;;;;;;10337373;28;20452;-84
2024/02/23 06:48:51;;;;;;;8.37;3.73;;;;;;;;;;10303348;28;20469;-84
2024/02/23 06:53:56;;;;;;;10.80;3.90;;;;;;;;;;10320168;28;20418;-83
2024/02/23 06:58:58;;;;;;;7.67;3.80;;;;;;;;;;10317815;28;20524;-83
2024/02/23 07:04:01;;;;;;;8.43;4.07;;;;;;;;;;10308341;28;21240;-82
2024/02/23 07:09:05;;;;;;;9.30;4.07;;;;;;;;;;10309369;28;20526;-83
2024/02/23 07:14:09;;;;;;;7.53;3.67;;;;;;;;;;10314122;28;20534;-83
2024/02/23 07:19:12;;;;;;;6.90;3.63;;;;;;;;;;10312540;28;20441;-83
2024/02/23 07:24:17;;;;;;;10.68;3.80;;;;;;;;;;10321523;28;20434;-84
2024/02/23 07:29:19;;;;;;;8.10;3.67;;;;;;;;;;10331769;28;20424;-84
2024/02/23 07:34:22;;;;;;;9.07;3.80;;;;;;;;;;10316048;28;20989;-84
2024/02/23 07:39:26;;;;;;;7.50;3.53;;;;;;;;;;10316145;28;20418;-84
2024/02/23 07:44:28;;;;;;;6.03;3.65;;;;;;;;;;10311269;28;20436;-84
2024/02/23 07:49:31;;;;;;;8.82;4.00;;;;;;;;;;10333904;23;20468;-84
2024/02/23 07:54:35;;;;;;;6.53;4.10;;;;;;;;;;10347087;28;20445;-83
2024/02/23 07:59:37;;;;;;;9.15;4.22;;;;;;;;;;10341566;28;20838;-84
2024/02/23 08:04:40;;;;;;;7.68;3.83;;;;;;;;;;10339159;28;20510;-83
2024/02/23 08:09:44;;;;;;;6.55;3.70;;;;;;;;;;10339269;28;20435;-84
2024/02/23 08:14:48;;;;;;;5.83;3.77;;;;;;;;;;10352804;28;20407;-83
2024/02/23 08:19:51;;;;;;;8.20;4.60;;;;;;;;;;10345411;28;20768;-84
2024/02/23 08:24:54;;;;;;;7.40;4.13;;;;;;;;;;10345099;28;20417;-85
2024/02/23 08:29:57;;;;;;;7.73;4.03;;;;;;;;;;10343542;28;20494;-84
2024/02/23 08:35:01;;;;;;;7.27;3.33;;;;;;;;;;10339634;28;22658;-84
2024/02/23 08:40:06;;;;;;;10.83;4.03;;;;;;;;;;10333876;28;20417;-83
2024/02/23 08:45:12;;;;;;;11.32;4.90;;;;;;;;;;10340148;28;20448;-84
2024/02/23 08:50:14;;;;;;;7.65;4.40;;;;;;;;;;10343355;28;20550;-84
2024/02/23 08:55:18;;;;;;;8.48;3.75;;;;;;;;;;10342743;28;20468;-84
2024/02/23 09:00:21;;;;;;;6.72;4.05;;;;;;;;;;10344679;28;20779;-84
2024/02/23 09:05:23;;;;;;;6.57;4.40;;;;;;;;;;10344700;28;20903;-82
2024/02/23 09:10:27;;;;;;;10.68;4.38;;;;;;;;;;10339805;28;20464;-83
2024/02/23 09:15:29;;;;;;;9.40;4.30;;;;;;;;;;10341977;28;20458;-83
2024/02/23 09:20:31;;;;;;;10.38;4.13;;;;;;;;;;10335190;28;20769;-82
2024/02/23 09:25:35;;;;;;;9.18;5.07;;;;;;;;;;10330883;28;20515;-82
2024/02/23 09:30:38;;;;;;;10.03;4.40;;;;;;;;;;10332206;28;20951;-82
2024/02/23 09:35:40;;;;;;;7.28;4.40;;;;;;;;;;10330982;28;20415;-82
2024/02/23 09:40:44;;;;;;;11.65;4.13;;;;;;;;;;10326613;28;20970;-82
2024/02/23 09:45:47;;;;;;;8.38;4.07;;;;;;;;;;10333177;28;20461;-82
2024/02/23 09:50:52;;;;;;;8.07;3.73;;;;;;;;;;10335617;28;20529;-82
2024/02/23 09:55:58;;;;;;;8.10;3.90;;;;;;;;;;10333072;28;20467;-82
2024/02/23 10:01:02;;;;;;;7.53;4.33;;;;;;;;;;10340621;28;20455;-83
2024/02/23 10:06:05;;;;;;;9.30;3.93;;;;;;;;;;10336818;28;20480;-82
2024/02/23 10:11:09;;;;;;;8.45;4.10;;;;;;;;;;10335325;28;20466;-82
2024/02/23 10:16:12;;;;;;;7.00;4.35;;;;;;;;;;10341518;28;20415;-83
2024/02/23 10:21:15;;;;;;;7.13;3.78;;;;;;;;;;10341568;28;21240;-83
2024/02/23 10:26:22;;;;;;;7.80;3.75;;;;;;;;;;10334653;28;20926;-83
2024/02/23 10:31:25;;;;;;;7.85;3.55;;;;;;;;;;10340152;28;20511;-83
2024/02/23 10:36:31;;;;;;;7.75;3.85;;;;;;;;;;10341147;28;20425;-82
2024/02/23 10:41:36;;;;;;;10.52;4.57;;;;;;;;;;10338604;28;20477;-82
2024/02/23 10:46:40;;;;;;;7.50;3.67;;;;;;;;;;10342549;28;20487;-83
2024/02/23 10:51:44;;;;;;;7.68;3.88;;;;;;;;;;10342320;28;20500;-83
2024/02/23 10:56:52;;;;;;;7.35;3.53;;;;;;;;;;10320233;28;20468;-80
2024/02/23 11:01:57;;;;;;;7.63;3.60;;;;;;;;;;10336594;28;20423;-82
2024/02/23 11:07:04;;;;;;;8.98;3.95;;;;;;;;;;10333855;28;20898;-83
2024/02/23 11:12:09;;;;;;;10.27;4.20;;;;;;;;;;10333721;28;20450;-82
2024/02/23 11:17:19;;;;;;;7.65;3.40;;;;;;;;;;10335763;28;20490;-83
2024/02/23 11:22:25;;;;;;;9.23;4.33;;;;;;;;;;10335076;28;20972;-84
2024/02/23 11:27:31;;;;;;;6.13;4.13;;;;;;;;;;10330696;28;20453;-84
2024/02/23 11:32:39;;;;;;;5.93;3.78;;;;;;;;;;10332037;28;20436;-85
2024/02/23 11:37:49;;;;;;;5.03;3.57;;;;;;;;;;10335933;28;20839;-82
2024/02/23 11:42:55;;;;;;;6.17;4.03;;;;;;;;;;10332670;28;20415;-82
2024/02/23 11:47:57;;;;;;;5.63;3.83;;;;;;;;;;10346076;28;20407;-82
2024/02/23 11:53:01;;;;;;;4.43;3.45;;;;;;;;;;10332639;28;20777;-84
2024/02/23 11:58:06;;;;;;;6.63;3.60;;;;;;;;;;10338177;28;20876;-83
2024/02/23 12:03:09;;;;;;;4.05;2.90;;;;;;;;;;10340344;28;20410;-82
2024/02/23 12:08:12;;;;;;;5.82;3.40;;;;;;;;;;10343164;28;20469;-83
2024/02/23 12:13:16;;;;;;;6.85;3.95;;;;;;;;;;10342175;28;20458;-82
2024/02/23 12:18:19;;;;;;;5.40;3.70;;;;;;;;;;10347771;28;20411;-83
2024/02/23 12:23:22;;;;;;;5.72;3.97;;;;;;;;;;10342918;28;20414;-81
2024/02/23 12:28:26;;;;;;;4.82;3.85;;;;;;;;;;10344102;28;20507;-82
2024/02/23 12:33:30;;;;;;;5.22;3.55;;;;;;;;;;10336262;28;20937;-81
2024/02/23 12:38:33;;;;;;;4.72;3.28;;;;;;;;;;10333752;28;20443;-82
2024/02/23 12:43:37;;;;;;;4.15;2.83;;;;;;;;;;10339531;28;20452;-82
2024/02/23 12:48:39;;;;;;;5.15;3.40;;;;;;;;;;10331630;28;20906;-82
2024/02/23 12:53:42;;;;;;;4.47;3.13;;;;;;;;;;10343992;28;20497;-82
2024/02/23 12:58:46;;;;;;;6.07;3.05;;;;;;;;;;10332350;28;20930;-83
2024/02/23 13:03:49;;;;;;;5.55;2.95;;;;;;;;;;10337796;28;20451;-81
2024/02/23 13:08:51;;;;;;;3.40;2.55;;;;;;;;;;10339794;28;20438;-82
2024/02/23 13:13:55;;;;;;;4.70;3.10;;;;;;;;;;10337632;28;20485;-83
2024/02/23 13:18:58;;;;;;;4.53;3.27;;;;;;;;;;10337559;28;20469;-82
2024/02/23 13:24:00;;;;;;;5.07;3.30;;;;;;;;;;10341912;28;20461;-82
2024/02/23 13:29:04;;;;;;;5.63;3.67;;;;;;;;;;10326975;28;20452;-82
2024/02/23 13:34:06;;;;;;;8.00;4.63;;;;;;;;;;10337846;28;20463;-81
2024/02/23 13:39:09;;;;;;;8.37;4.70;;;;;;;;;;10335978;28;20456;-82
2024/02/23 13:44:13;;;;;;;10.00;6.10;;;;;;;;;;10340303;28;20454;-82
2024/02/23 13:49:15;;;;;;;10.77;7.30;;;;;;;;;;10343188;28;20932;-83
2024/02/23 13:54:17;;;;;;;11.27;7.43;;;;;;;;;;10335176;28;20525;-82
2024/02/23 13:59:21;;;;;;;11.43;7.55;;;;;;;;;;10334022;28;20523;-83
2024/02/23 14:04:24;;;;;;;21.85;11.90;;;;;;;;;;10335376;28;20576;-82
2024/02/23 14:09:26;;;;;;;12.45;9.20;;;;;;;;;;10326164;28;20452;-82
2024/02/23 14:14:30;;;;;;;12.57;7.25;;;;;;;;;;10328156;28;20449;-82
2024/02/23 14:19:32;;;;;;;14.75;7.60;;;;;;;;;;10331859;28;20513;-83
2024/02/23 14:24:35;;;;;;;8.88;6.40;;;;;;;;;;10338444;28;20452;-84
2024/02/23 14:29:38;;;;;;;63.83;30.80;;;;;;;;;;10337081;28;20929;-84
2024/02/23 14:34:41;;;;;;;5.60;4.22;;;;;;;;;;10335496;28;20490;-81
2024/02/23 14:39:43;;;;;;;4.88;3.65;;;;;;;;;;10327479;28;20461;-81
2024/02/23 14:44:47;;;;;;;6.55;4.15;;;;;;;;;;10327281;28;20464;-82
2024/02/23 14:49:49;;;;;;;4.53;3.93;;;;;;;;;;10332087;28;20479;-82
2024/02/23 14:54:53;;;;;;;5.70;4.93;;;;;;;;;;10337785;28;20532;-81
2024/02/23 14:59:57;;;;;;;5.47;4.03;;;;;;;;;;10340105;28;20536;-81
2024/02/23 15:04:59;;;;;;;69.65;28.85;;;;;;;;;;10341065;28;20431;-82
2024/02/23 15:10:05;;;;;;;30.50;14.77;;;;;;;;;;10336315;28;20833;-82
2024/02/23 15:15:10;;;;;;;6.70;4.63;;;;;;;;;;10332257;28;20773;-85
2024/02/23 15:20:13;;;;;;;6.68;4.57;;;;;;;;;;10336271;28;20446;-83
2024/02/23 15:25:15;;;;;;;9.45;5.75;;;;;;;;;;10337601;28;20512;-84
2024/02/23 15:30:19;;;;;;;5.22;4.07;;;;;;;;;;10343145;28;20412;-84
2024/02/23 15:35:22;;;;;;;6.40;4.00;;;;;;;;;;10342162;28;21008;-83
2024/02/23 15:40:24;;;;;;;5.88;3.97;;;;;;;;;;10336117;28;20518;-83
2024/02/23 15:45:28;;;;;;;6.40;4.00;;;;;;;;;;10330713;28;20475;-83
2024/02/23 15:50:31;;;;;;;4.50;3.88;;;;;;;;;;10326053;28;20495;-82
2024/02/23 15:55:34;;;;;;;3.95;3.28;;;;;;;;;;10324129;28;20461;-83
2024/02/23 16:00:37;;;;;;;5.57;3.92;;;;;;;;;;10328941;28;20511;-85
2024/02/23 16:05:40;;;;;;;6.00;3.70;;;;;;;;;;10323415;28;20511;-85
2024/02/23 16:10:43;;;;;;;6.93;4.20;;;;;;;;;;10329160;28;20537;-84
2024/02/23 16:15:47;;;;;;;7.50;5.50;;;;;;;;;;10308008;28;20441;-85
2024/02/23 16:20:50;;;;;;;6.85;5.00;;;;;;;;;;10326135;28;20415;-86
2024/02/23 16:25:53;;;;;;;8.45;4.35;;;;;;;;;;10330739;28;20425;-84
2024/02/23 16:30:57;;;;;;;6.43;4.82;;;;;;;;;;10328736;28;20456;-85
2024/02/23 16:36:00;;;;;;;6.53;4.53;;;;;;;;;;10329794;28;20419;-85
2024/02/23 16:41:02;;;;;;;6.90;4.78;;;;;;;;;;10319374;28;20460;-84
2024/02/23 16:46:06;;;;;;;6.22;4.60;;;;;;;;;;10326990;28;20939;-84
2024/02/23 16:51:08;;;;;;;7.07;5.30;;;;;;;;;;10326816;28;20457;-84
2024/02/23 16:56:11;;;;;;;7.83;6.20;;;;;;;;;;10323659;28;20514;-85
2024/02/23 17:01:15;;;;;;;7.07;5.90;;;;;;;;;;10314128;28;20520;-82
2024/02/23 17:06:17;;;;;;;8.93;5.57;;;;;;;;;;10318695;28;20517;-84
2024/02/23 17:11:20;;;;;;;10.13;6.93;;;;;;;;;;10316375;28;20536;-84
2024/02/23 17:16:27;;;;;;;10.97;6.70;;;;;;;;;;10319969;28;20442;-82
2024/02/23 17:21:29;;;;;;;8.27;5.53;;;;;;;;;;10327625;28;20413;-83
2024/02/23 17:26:31;;;;;;;7.73;5.83;;;;;;;;;;10322864;28;20456;-84
2024/02/23 17:31:35;;;;;;;8.40;6.30;;;;;;;;;;10325032;28;21123;-84
2024/02/23 17:36:42;;;;;;;6.60;5.60;;;;;;;;;;10343925;28;20446;-83
2024/02/23 17:41:45;;;;;;;9.73;7.13;;;;;;;;;;10320070;28;20491;-82
2024/02/23 17:46:48;;;;;;;6.88;5.40;;;;;;;;;;10335067;28;20507;-82
2024/02/23 17:51:51;;;;;;;7.50;5.67;;;;;;;;;;10336594;28;20513;-82
2024/02/23 17:56:54;;;;;;;7.53;5.37;;;;;;;;;;10333266;28;20485;-82
2024/02/23 18:01:58;;;;;;;15.40;9.25;;;;;;;;;;10331584;28;20438;-81
2024/02/23 18:07:00;;;;;;;8.43;6.10;;;;;;;;;;10330711;28;20890;-84
2024/02/23 18:12:03;;;;;;;8.30;6.20;;;;;;;;;;10324755;28;20513;-82
2024/02/23 18:17:07;;;;;;;8.20;6.38;;;;;;;;;;10323490;28;20448;-83
2024/02/23 18:22:10;;;;;;;10.15;6.72;;;;;;;;;;10340406;28;20447;-83
2024/02/23 18:27:13;;;;;;;9.32;7.30;;;;;;;;;;10329673;28;20452;-82
2024/02/23 18:32:16;;;;;;;10.93;7.33;;;;;;;;;;10335873;28;20460;-84
2024/02/23 18:37:23;;;;;;;9.40;7.85;;;;;;;;;;10334666;28;20424;-81
2024/02/23 18:42:26;;;;;;;10.37;7.57;;;;;;;;;;10343847;28;20420;-82
2024/02/23 18:47:31;;;;;;;9.37;7.60;;;;;;;;;;10334338;28;20510;-83
2024/02/23 18:52:33;;;;;;;11.10;8.30;;;;;;;;;;10333510;28;20447;-81
2024/02/23 18:57:35;;;;;;;11.43;8.60;;;;;;;;;;10332230;28;21134;-85
2024/02/23 19:02:39;;;;;;;12.57;8.33;;;;;;;;;;10335677;28;20437;-85
2024/02/23 19:07:41;;;;;;;14.25;10.20;;;;;;;;;;10339253;28;20412;-84
2024/02/23 19:12:44;;;;;;;12.88;9.70;;;;;;;;;;10338640;28;20511;-85
2024/02/23 19:17:48;;;;;;;12.47;9.37;;;;;;;;;;10332607;28;20499;-85
2024/02/23 19:22:53;;;;;;;15.52;11.18;;;;;;;;;;10336566;28;20407;-85
2024/02/23 19:27:56;;;;;;;18.80;12.85;;;;;;;;;;10334686;28;20833;-85
2024/02/23 19:32:59;;;;;;;23.08;14.68;;;;;;;;;;10335788;28;20456;-85
2024/02/23 19:38:02;;;;;;;20.77;14.57;;;;;;;;;;10340873;28;20680;-85
2024/02/23 19:43:04;;;;;;;26.05;16.42;;;;;;;;;;10336937;28;20484;-82
2024/02/23 19:48:08;;;;;;;21.40;15.30;;;;;;;;;;10325870;28;20452;-81
2024/02/23 19:53:11;;;;;;;24.03;15.40;;;;;;;;;;10339827;28;20506;-81
2024/02/23 19:58:13;;;;;;;23.43;16.27;;;;;;;;;;10332558;28;20514;-81
2024/02/23 20:03:19;;;;;;;21.73;15.47;;;;;;;;;;10327979;28;20444;-81
2024/02/23 20:08:23;;;;;;;20.27;15.02;;;;;;;;;;10322227;28;20460;-81
2024/02/23 20:13:25;;;;;;;25.75;17.08;;;;;;;;;;10328572;28;20516;-80
2024/02/23 20:18:29;;;;;;;28.90;18.10;;;;;;;;;;10339279;28;20498;-81
2024/02/23 20:23:31;;;;;;;29.85;20.65;;;;;;;;;;10330377;28;20460;-81
2024/02/23 20:28:34;;;;;;;31.00;21.05;;;;;;;;;;10325016;28;20936;-81
2024/02/23 20:33:39;;;;;;;30.08;19.80;;;;;;;;;;10327875;28;20481;-81
2024/02/23 20:38:42;;;;;;;25.15;18.85;;;;;;;;;;10333398;28;20522;-82
2024/02/23 20:43:44;;;;;;;26.50;19.52;;;;;;;;;;10335962;28;20517;-82
2024/02/23 20:48:48;;;;;;;25.10;19.20;;;;;;;;;;10339103;28;20999;-81
2024/02/23 20:53:50;;;;;;;25.88;18.77;;;;;;;;;;10333914;28;20526;-82
2024/02/23 20:58:53;;;;;;;32.50;22.83;;;;;;;;;;10328515;28;20934;-82
2024/02/23 21:03:59;;;;;;;26.88;19.13;;;;;;;;;;10335666;28;20758;-81
2024/02/23 21:09:02;;;;;;;25.83;18.20;;;;;;;;;;10331658;28;20443;-81
2024/02/23 21:14:06;;;;;;;25.10;18.63;;;;;;;;;;10329048;28;20529;-82
2024/02/23 21:19:10;;;;;;;22.33;16.52;;;;;;;;;;10332279;28;20513;-82
2024/02/23 21:24:13;;;;;;;20.98;15.48;;;;;;;;;;10335571;28;20452;-82
2024/02/23 21:29:15;;;;;;;20.70;14.68;;;;;;;;;;10333570;28;20450;-82
2024/02/23 21:34:19;;;;;;;21.48;15.02;;;;;;;;;;10335638;28;20920;-81
2024/02/23 21:39:21;;;;;;;23.40;15.90;;;;;;;;;;10327387;28;20447;-81
2024/02/23 21:44:24;;;;;;;22.83;15.07;;;;;;;;;;10330978;28;20509;-81
2024/02/23 21:49:28;;;;;;;30.88;20.17;;;;;;;;;;10337386;28;20484;-83
2024/02/23 21:54:30;;;;;;;30.75;20.27;;;;;;;;;;10339685;28;20450;-82
2024/02/23 21:59:32;;;;;;;24.48;18.27;;;;;;;;;;10338838;28;20864;-80
2024/02/23 22:04:38;;;;;;;25.40;17.40;;;;;;;;;;10337788;28;20465;-81
2024/02/23 22:09:41;;;;;;;22.43;16.27;;;;;;;;;;10340975;28;20472;-81
2024/02/23 22:14:44;;;;;;;21.80;16.75;;;;;;;;;;10354230;28;21367;-82
2024/02/23 22:19:47;;;;;;;20.55;15.13;;;;;;;;;;10336297;28;20453;-82
2024/02/23 22:24:50;;;;;;;22.92;16.83;;;;;;;;;;10342109;28;20448;-83
2024/02/23 22:29:52;;;;;;;20.45;15.63;;;;;;;;;;10341378;28;20897;-82
2024/02/23 22:34:56;;;;;;;21.63;15.80;;;;;;;;;;10352704;28;20614;-80
2024/02/23 22:39:58;;;;;;;22.55;15.77;;;;;;;;;;10350108;28;20463;-82
2024/02/23 22:45:00;;;;;;;19.77;14.90;;;;;;;;;;10344038;28;20444;-83
2024/02/23 22:50:05;;;;;;;21.85;14.02;;;;;;;;;;10337715;28;20914;-80
2024/02/23 22:55:07;;;;;;;22.42;14.98;;;;;;;;;;10350841;28;20455;-82
2024/02/23 23:00:11;;;;;;;23.63;15.03;;;;;;;;;;10352199;28;20450;-83
2024/02/23 23:05:14;;;;;;;22.17;15.43;;;;;;;;;;10345290;28;20444;-83
2024/02/23 23:10:17;;;;;;;21.33;14.80;;;;;;;;;;10343138;28;21162;-83
2024/02/23 23:15:19;;;;;;;19.60;13.68;;;;;;;;;;10336505;28;20542;-82
2024/02/23 23:20:23;;;;;;;19.92;13.70;;;;;;;;;;10349058;28;20411;-84
2024/02/23 23:25:26;;;;;;;19.90;14.25;;;;;;;;;;10361135;28;20417;-83
2024/02/23 23:30:28;;;;;;;22.33;13.85;;;;;;;;;;10347681;28;20409;-82
2024/02/23 23:35:32;;;;;;;20.60;13.98;;;;;;;;;;10343670;28;20458;-83
2024/02/23 23:40:35;;;;;;;19.07;13.77;;;;;;;;;;10340778;28;20479;-81
2024/02/23 23:45:37;;;;;;;20.95;14.38;;;;;;;;;;10344666;28;20483;-80
2024/02/23 23:50:41;;;;;;;18.67;13.10;;;;;;;;;;10341557;28;20907;-82
2024/02/23 23:55:43;;;;;;;20.58;14.55;;;;;;;;;;10340876;28;20527;-83
